sensor_id;sensor_type;location;lat;lon;timestamp;P1;durP1;ratioP1;P2;durP2;ratioP2
21899;SDS011;11114;50.658;12.704;2023-12-20T06:48:41;26.65;;;24.55;;
21899;SDS011;11114;50.658;12.704;2023-12-20T06:51:29;27.30;;;25.25;;
21899;SDS011;11114;50.658;12.704;2023-12-20T06:54:17;28.48;;;26.17;;
21899;SDS011;11114;50.658;12.704;2023-12-20T06:57:12;26.90;;;24.70;;
21899;SDS011;11114;50.658;12.704;2023-12-20T07:00:02;28.52;;;26.23;;
21899;SDS011;11114;50.658;12.704;2023-12-20T07:05:39;27.55;;;25.25;;
21899;SDS011;11114;50.658;12.704;2023-12-20T07:08:27;27.08;;;24.88;;
21899;SDS011;11114;50.658;12.704;2023-12-20T07:11:16;27.17;;;24.77;;
21899;SDS011;11114;50.658;12.704;2023-12-20T07:14:03;26.67;;;24.48;;
21899;SDS011;11114;50.658;12.704;2023-12-20T07:16:49;27.00;;;24.60;;
21899;SDS011;11114;50.658;12.704;2023-12-20T07:19:35;26.13;;;23.95;;
21899;SDS011;11114;50.658;12.704;2023-12-20T16:50:34;18.90;;;16.98;;
21899;SDS011;11114;50.658;12.704;2023-12-20T16:53:21;19.48;;;17.65;;
21899;SDS011;11114;50.658;12.704;2023-12-20T16:56:08;19.77;;;18.08;;
21899;SDS011;11114;50.658;12.704;2023-12-20T16:58:55;17.60;;;16.23;;
21899;SDS011;11114;50.658;12.704;2023-12-20T17:01:42;18.83;;;16.90;;
21899;SDS011;11114;50.658;12.704;2023-12-20T17:04:31;18.25;;;16.65;;
21899;SDS011;11114;50.658;12.704;2023-12-20T17:07:19;18.23;;;16.70;;
21899;SDS011;11114;50.658;12.704;2023-12-20T17:10:05;18.38;;;16.88;;
21899;SDS011;11114;50.658;12.704;2023-12-20T17:12:52;18.77;;;16.95;;
21899;SDS011;11114;50.658;12.704;2023-12-20T17:15:39;18.35;;;16.95;;
21899;SDS011;11114;50.658;12.704;2023-12-20T17:18:27;18.38;;;16.83;;
21899;SDS011;11114;50.658;12.704;2023-12-20T17:21:17;18.80;;;17.10;;
21899;SDS011;11114;50.658;12.704;2023-12-20T17:24:04;18.23;;;16.77;;
21899;SDS011;11114;50.658;12.704;2023-12-20T17:26:54;17.42;;;16.17;;
21899;SDS011;11114;50.658;12.704;2023-12-20T17:29:40;18.20;;;16.70;;
21899;SDS011;11114;50.658;12.704;2023-12-20T17:32:26;18.15;;;16.75;;
21899;SDS011;11114;50.658;12.704;2023-12-20T17:35:13;18.25;;;16.83;;
21899;SDS011;11114;50.658;12.704;2023-12-20T17:37:58;18.70;;;17.00;;
21899;SDS011;11114;50.658;12.704;2023-12-20T17:40:45;17.35;;;16.05;;
21899;SDS011;11114;50.658;12.704;2023-12-20T17:43:31;17.73;;;16.40;;
21899;SDS011;11114;50.658;12.704;2023-12-20T17:46:17;17.80;;;16.45;;
21899;SDS011;11114;50.658;12.704;2023-12-20T17:49:04;17.42;;;16.13;;
21899;SDS011;11114;50.658;12.704;2023-12-20T17:51:51;17.70;;;16.20;;
21899;SDS011;11114;50.658;12.704;2023-12-20T17:54:39;17.20;;;15.90;;
21899;SDS011;11114;50.658;12.704;2023-12-20T17:57:26;17.20;;;15.90;;
21899;SDS011;11114;50.658;12.704;2023-12-20T18:00:18;16.98;;;15.77;;
21899;SDS011;11114;50.658;12.704;2023-12-20T18:03:06;16.30;;;15.10;;
21899;SDS011;11114;50.658;12.704;2023-12-20T18:05:53;16.65;;;15.40;;
21899;SDS011;11114;50.658;12.704;2023-12-20T18:08:39;16.80;;;15.60;;
21899;SDS011;11114;50.658;12.704;2023-12-20T18:11:26;16.45;;;15.23;;
21899;SDS011;11114;50.658;12.704;2023-12-20T18:14:12;16.70;;;15.40;;
21899;SDS011;11114;50.658;12.704;2023-12-20T18:16:58;16.63;;;15.48;;
21899;SDS011;11114;50.658;12.704;2023-12-20T18:19:45;16.50;;;15.25;;
21899;SDS011;11114;50.658;12.704;2023-12-20T18:22:34;16.58;;;15.27;;
21899;SDS011;11114;50.658;12.704;2023-12-20T18:25:20;16.00;;;14.88;;
21899;SDS011;11114;50.658;12.704;2023-12-20T18:28:06;16.17;;;15.00;;
21899;SDS011;11114;50.658;12.704;2023-12-20T18:30:54;16.20;;;15.00;;
21899;SDS011;11114;50.658;12.704;2023-12-20T18:33:40;16.50;;;15.20;;
21899;SDS011;11114;50.658;12.704;2023-12-20T18:36:26;16.25;;;14.90;;
21899;SDS011;11114;50.658;12.704;2023-12-20T18:39:13;16.10;;;14.88;;
21899;SDS011;11114;50.658;12.704;2023-12-20T18:41:59;16.02;;;14.77;;
21899;SDS011;11114;50.658;12.704;2023-12-20T18:44:46;15.48;;;14.48;;
21899;SDS011;11114;50.658;12.704;2023-12-20T18:47:32;15.35;;;14.35;;
21899;SDS011;11114;50.658;12.704;2023-12-20T18:50:18;16.48;;;15.02;;
21899;SDS011;11114;50.658;12.704;2023-12-20T18:53:05;15.80;;;14.70;;
21899;SDS011;11114;50.658;12.704;2023-12-20T18:55:53;16.38;;;15.07;;
21899;SDS011;11114;50.658;12.704;2023-12-20T18:58:42;16.77;;;15.48;;
21899;SDS011;11114;50.658;12.704;2023-12-20T19:01:31;16.83;;;15.50;;
21899;SDS011;11114;50.658;12.704;2023-12-20T19:04:20;16.90;;;15.70;;
21899;SDS011;11114;50.658;12.704;2023-12-20T19:07:06;16.10;;;15.00;;
21899;SDS011;11114;50.658;12.704;2023-12-20T19:09:53;16.65;;;15.45;;
21899;SDS011;11114;50.658;12.704;2023-12-20T19:12:39;16.70;;;15.50;;
21899;SDS011;11114;50.658;12.704;2023-12-20T19:15:29;16.80;;;15.60;;
21899;SDS011;11114;50.658;12.704;2023-12-20T19:18:15;18.23;;;16.83;;
21899;SDS011;11114;50.658;12.704;2023-12-20T19:21:02;17.52;;;16.33;;
21899;SDS011;11114;50.658;12.704;2023-12-20T19:23:53;17.63;;;16.33;;
21899;SDS011;11114;50.658;12.704;2023-12-20T19:26:39;17.58;;;16.27;;
21899;SDS011;11114;50.658;12.704;2023-12-20T19:29:25;17.23;;;16.00;;
21899;SDS011;11114;50.658;12.704;2023-12-20T19:32:12;17.50;;;16.20;;
21899;SDS011;11114;50.658;12.704;2023-12-20T19:34:58;17.50;;;16.10;;
21899;SDS011;11114;50.658;12.704;2023-12-20T19:37:45;17.15;;;15.95;;
21899;SDS011;11114;50.658;12.704;2023-12-20T19:40:32;17.45;;;16.15;;
21899;SDS011;11114;50.658;12.704;2023-12-20T19:43:19;17.70;;;16.40;;
21899;SDS011;11114;50.658;12.704;2023-12-20T19:46:07;17.38;;;15.93;;
21899;SDS011;11114;50.658;12.704;2023-12-20T19:48:54;17.38;;;16.08;;
21899;SDS011;11114;50.658;12.704;2023-12-20T19:51:41;17.95;;;16.30;;
21899;SDS011;11114;50.658;12.704;2023-12-20T19:54:27;17.23;;;15.93;;
21899;SDS011;11114;50.658;12.704;2023-12-20T19:57:14;17.20;;;15.95;;
21899;SDS011;11114;50.658;12.704;2023-12-20T20:00:02;17.08;;;15.85;;
21899;SDS011;11114;50.658;12.704;2023-12-20T20:02:56;17.17;;;15.95;;
21899;SDS011;11114;50.658;12.704;2023-12-20T20:05:43;17.00;;;15.65;;
21899;SDS011;11114;50.658;12.704;2023-12-20T20:08:30;17.30;;;16.00;;
21899;SDS011;11114;50.658;12.704;2023-12-20T20:11:16;16.85;;;15.65;;
21899;SDS011;11114;50.658;12.704;2023-12-20T20:14:18;17.15;;;15.95;;
21899;SDS011;11114;50.658;12.704;2023-12-20T20:17:04;17.50;;;16.10;;
21899;SDS011;11114;50.658;12.704;2023-12-20T20:22:41;16.70;;;15.60;;
21899;SDS011;11114;50.658;12.704;2023-12-20T20:25:28;16.90;;;15.70;;
21899;SDS011;11114;50.658;12.704;2023-12-20T20:28:15;16.70;;;15.55;;
21899;SDS011;11114;50.658;12.704;2023-12-20T20:31:02;16.63;;;15.43;;
21899;SDS011;11114;50.658;12.704;2023-12-20T20:33:49;16.33;;;15.13;;
21899;SDS011;11114;50.658;12.704;2023-12-20T20:36:36;16.45;;;15.25;;
21899;SDS011;11114;50.658;12.704;2023-12-20T20:39:23;16.92;;;15.63;;
21899;SDS011;11114;50.658;12.704;2023-12-20T20:42:10;16.77;;;15.57;;
21899;SDS011;11114;50.658;12.704;2023-12-20T20:44:57;16.85;;;15.65;;
21899;SDS011;11114;50.658;12.704;2023-12-20T20:47:44;16.88;;;15.68;;
21899;SDS011;11114;50.658;12.704;2023-12-20T20:50:32;16.70;;;15.50;;
21899;SDS011;11114;50.658;12.704;2023-12-20T20:53:18;16.52;;;15.32;;
21899;SDS011;11114;50.658;12.704;2023-12-20T20:56:06;16.20;;;15.10;;
21899;SDS011;11114;50.658;12.704;2023-12-20T20:58:53;16.20;;;15.10;;
21899;SDS011;11114;50.658;12.704;2023-12-20T21:01:43;16.75;;;15.38;;
21899;SDS011;11114;50.658;12.704;2023-12-20T21:04:29;16.70;;;15.48;;
21899;SDS011;11114;50.658;12.704;2023-12-20T21:07:17;16.55;;;15.35;;
21899;SDS011;11114;50.658;12.704;2023-12-20T21:10:04;16.08;;;14.98;;
21899;SDS011;11114;50.658;12.704;2023-12-20T21:12:52;16.65;;;15.45;;
21899;SDS011;11114;50.658;12.704;2023-12-20T21:15:39;16.33;;;15.23;;
21899;SDS011;11114;50.658;12.704;2023-12-20T21:18:25;15.98;;;14.88;;
21899;SDS011;11114;50.658;12.704;2023-12-20T21:21:14;16.40;;;15.15;;
21899;SDS011;11114;50.658;12.704;2023-12-20T21:24:01;16.75;;;15.55;;
21899;SDS011;11114;50.658;12.704;2023-12-20T21:26:47;16.63;;;15.43;;
